createdAt,value
2017-12-13T00:00:49.246Z,16.00
2017-12-13T00:03:15.592Z,18.37
2017-12-13T00:05:41.803Z,19.50
2017-12-13T00:08:08.055Z,19.10
2017-12-13T00:10:34.368Z,18.27
2017-12-13T00:13:00.623Z,19.77
2017-12-13T00:15:26.988Z,19.55
2017-12-13T00:17:53.556Z,21.02
2017-12-13T00:20:19.773Z,19.17
2017-12-13T00:22:46.336Z,16.37
2017-12-13T00:25:12.551Z,15.93
2017-12-13T00:27:38.741Z,13.27
2017-12-13T00:30:05.429Z,14.10
2017-12-13T00:32:31.620Z,12.15
2017-12-13T00:34:58.212Z,10.63
2017-12-13T00:37:24.418Z,14.73
2017-12-13T00:39:50.640Z,11.45
2017-12-13T00:42:16.898Z,14.65
2017-12-13T00:44:43.089Z,13.70
2017-12-13T00:47:09.337Z,14.60
2017-12-13T00:49:35.680Z,14.02
2017-12-13T00:52:01.876Z,15.82
2017-12-13T00:54:28.167Z,20.88
2017-12-13T00:56:54.425Z,26.70
2017-12-13T00:59:20.666Z,26.42
2017-12-13T01:01:47.395Z,23.20
2017-12-13T01:04:13.643Z,23.73
2017-12-13T01:06:39.923Z,25.80
2017-12-13T01:09:06.541Z,21.27
2017-12-13T01:11:32.746Z,25.10
2017-12-13T01:13:59.052Z,23.15
2017-12-13T01:16:25.266Z,25.20
2017-12-13T01:18:51.568Z,23.98
2017-12-13T01:21:18.200Z,20.33
2017-12-13T01:23:44.460Z,17.37
2017-12-13T01:26:10.725Z,20.25
2017-12-13T01:28:37.105Z,25.20
2017-12-13T01:31:03.716Z,23.30
2017-12-13T01:33:30.001Z,28.75
2017-12-13T01:35:58.193Z,23.15
2017-12-13T01:38:24.443Z,25.75
2017-12-13T01:40:50.732Z,34.80
2017-12-13T01:43:16.984Z,24.52
2017-12-13T01:45:43.243Z,17.65
2017-12-13T01:48:09.453Z,16.45
2017-12-13T01:50:35.679Z,13.73
2017-12-13T01:53:02.014Z,18.58
2017-12-13T01:55:28.312Z,18.98
2017-12-13T01:57:54.511Z,15.95
2017-12-13T02:00:21.117Z,15.40
2017-12-13T02:02:47.447Z,15.48
2017-12-13T02:05:13.757Z,17.75
2017-12-13T02:07:40.112Z,16.20
2017-12-13T02:10:06.417Z,13.50
2017-12-13T02:12:33.174Z,14.82
2017-12-13T02:14:59.389Z,17.92
2017-12-13T02:17:25.600Z,17.20
2017-12-13T02:19:51.894Z,14.98
2017-12-13T02:22:18.151Z,15.38
2017-12-13T02:24:44.596Z,14.52
2017-12-13T02:27:10.794Z,16.45
2017-12-13T02:29:37.020Z,16.90
2017-12-13T02:32:03.243Z,16.05
2017-12-13T02:34:29.448Z,15.25
2017-12-13T02:36:55.637Z,20.48
2017-12-13T02:39:21.867Z,17.50
2017-12-13T02:41:48.084Z,21.33
2017-12-13T02:44:14.310Z,22.35
2017-12-13T02:46:41.337Z,23.15
2017-12-13T02:49:07.656Z,23.33
2017-12-13T02:51:34.026Z,34.45
2017-12-13T02:54:00.257Z,39.03
2017-12-13T02:56:26.505Z,33.40
2017-12-13T02:58:52.793Z,41.95
2017-12-13T03:01:19.105Z,37.15
2017-12-13T03:03:45.383Z,39.50
2017-12-13T03:06:11.666Z,36.55
2017-12-13T03:08:37.979Z,51.78
2017-12-13T03:11:04.575Z,55.15
2017-12-13T03:13:31.505Z,50.65
2017-12-13T03:15:57.897Z,41.88
2017-12-13T03:18:24.526Z,41.15
2017-12-13T03:20:51.125Z,30.88
2017-12-13T03:23:17.362Z,30.10
2017-12-13T03:25:43.624Z,24.52
2017-12-13T03:28:10.381Z,28.30
2017-12-13T03:30:36.611Z,24.42
2017-12-13T03:33:04.212Z,24.25
2017-12-13T03:35:30.424Z,23.30
2017-12-13T03:37:56.624Z,29.40
2017-12-13T03:40:22.835Z,23.67
2017-12-13T03:42:49.089Z,26.70
2017-12-13T03:45:15.312Z,24.98
2017-12-13T03:47:42.708Z,24.45
2017-12-13T03:50:09.026Z,26.17
2017-12-13T03:52:36.283Z,26.05
2017-12-13T03:55:02.555Z,25.75
2017-12-13T03:57:28.748Z,26.85
2017-12-13T03:59:55.016Z,26.60
2017-12-13T04:02:21.345Z,24.35
2017-12-13T04:04:47.933Z,25.60
2017-12-13T04:07:14.164Z,28.95
2017-12-13T04:09:40.389Z,28.25
2017-12-13T04:12:06.612Z,23.80
2017-12-13T04:14:32.799Z,28.85
2017-12-13T04:16:59.112Z,28.80
2017-12-13T04:19:25.690Z,28.23
2017-12-13T04:21:51.881Z,32.30
2017-12-13T04:24:18.093Z,35.25
2017-12-13T04:26:45.267Z,41.33
2017-12-13T04:29:11.844Z,35.85
2017-12-13T04:31:38.051Z,32.17
2017-12-13T04:34:04.241Z,35.70
2017-12-13T04:36:30.473Z,31.17
2017-12-13T04:38:56.732Z,32.45
2017-12-13T04:41:23.054Z,36.28
2017-12-13T04:43:49.299Z,41.10
2017-12-13T04:46:16.143Z,38.03
2017-12-13T04:48:42.521Z,29.83
2017-12-13T04:51:08.817Z,28.95
2017-12-13T04:53:35.081Z,29.40
2017-12-13T04:56:01.303Z,32.47
2017-12-13T04:58:27.640Z,26.85
2017-12-13T05:00:53.838Z,31.02
2017-12-13T05:03:20.160Z,34.05
2017-12-13T05:05:46.341Z,32.80
2017-12-13T05:08:12.937Z,30.00
2017-12-13T05:10:39.304Z,29.37
2017-12-13T05:13:05.557Z,29.33
2017-12-13T05:15:31.804Z,26.52
2017-12-13T05:17:58.027Z,30.80
2017-12-13T05:20:24.398Z,27.95
2017-12-13T05:22:50.749Z,33.70
2017-12-13T05:25:17.647Z,36.05
2017-12-13T05:27:43.882Z,32.47
2017-12-13T05:30:10.127Z,28.08
2017-12-13T05:32:36.632Z,27.37
2017-12-13T05:35:02.862Z,30.77
2017-12-13T05:37:29.169Z,32.10
2017-12-13T05:39:55.923Z,33.50
2017-12-13T05:42:22.175Z,31.42
2017-12-13T05:44:48.377Z,27.80
2017-12-13T05:47:14.739Z,27.48
2017-12-13T05:49:40.935Z,28.20
2017-12-13T05:52:07.170Z,32.20
2017-12-13T05:54:34.380Z,26.48
2017-12-13T05:57:00.989Z,29.90
2017-12-13T05:59:27.287Z,28.48
2017-12-13T06:01:53.519Z,28.52
2017-12-13T06:04:19.738Z,26.98
2017-12-13T06:06:52.753Z,25.37
2017-12-13T06:09:19.002Z,23.45
2017-12-13T06:11:45.218Z,27.10
2017-12-13T06:14:11.426Z,27.45
2017-12-13T06:16:37.637Z,25.77
2017-12-13T06:19:03.864Z,26.65
2017-12-13T06:21:30.092Z,24.25
2017-12-13T06:23:56.300Z,23.70
2017-12-13T06:26:22.549Z,28.30
2017-12-13T06:28:48.778Z,25.35
2017-12-13T06:31:15.007Z,24.95
2017-12-13T06:33:41.272Z,26.02
2017-12-13T06:36:07.605Z,25.55
2017-12-13T06:38:33.834Z,27.35
2017-12-13T06:41:00.069Z,26.70
2017-12-13T06:43:26.413Z,27.73
2017-12-13T06:45:54.691Z,22.23
2017-12-13T06:48:21.309Z,23.95
2017-12-13T06:50:47.522Z,25.45
2017-12-13T06:53:13.740Z,23.77
2017-12-13T06:55:40.019Z,23.95
2017-12-13T06:58:06.608Z,27.02
2017-12-13T07:00:32.848Z,20.77
2017-12-13T07:02:59.052Z,26.08
2017-12-13T07:05:25.255Z,22.02
2017-12-13T07:07:51.460Z,22.48
2017-12-13T07:10:17.663Z,24.85
2017-12-13T07:12:44.891Z,24.33
2017-12-13T07:15:11.132Z,26.75
2017-12-13T07:17:37.874Z,28.10
2017-12-13T07:20:04.125Z,26.60
2017-12-13T07:22:30.330Z,26.83
2017-12-13T07:24:56.569Z,22.37
2017-12-13T07:27:22.953Z,25.67
2017-12-13T07:29:49.282Z,22.37
2017-12-13T07:32:15.500Z,22.85
2017-12-13T07:34:41.844Z,23.90
2017-12-13T07:37:08.687Z,23.00
2017-12-13T07:39:34.875Z,22.83
2017-12-13T07:42:01.098Z,24.90
2017-12-13T07:44:27.724Z,23.48
2017-12-13T07:46:53.899Z,20.98
2017-12-13T07:49:20.115Z,22.77
2017-12-13T07:51:46.360Z,23.35
2017-12-13T07:54:12.546Z,21.37
2017-12-13T07:56:39.152Z,21.92
2017-12-13T07:59:05.492Z,23.80
2017-12-13T08:01:31.712Z,23.67
2017-12-13T08:03:57.900Z,21.35
2017-12-13T08:06:24.121Z,25.88
2017-12-13T08:08:50.325Z,23.35
2017-12-13T08:11:17.411Z,25.27
2017-12-13T08:13:43.973Z,20.73
2017-12-13T08:16:10.171Z,25.62
2017-12-13T08:18:36.356Z,26.87
2017-12-13T08:21:02.570Z,26.08
2017-12-13T08:23:28.856Z,22.80
2017-12-13T08:25:55.036Z,22.42
2017-12-13T08:28:21.284Z,22.67
2017-12-13T08:30:48.347Z,21.67
2017-12-13T08:33:14.555Z,22.10
2017-12-13T08:35:41.140Z,22.48
2017-12-13T08:38:07.524Z,19.35
2017-12-13T08:40:34.108Z,19.95
2017-12-13T08:43:00.383Z,18.12
2017-12-13T08:45:27.032Z,17.55
2017-12-13T08:47:53.653Z,21.35
2017-12-13T08:50:20.251Z,19.83
2017-12-13T08:52:46.473Z,20.60
2017-12-13T08:55:12.706Z,22.13
2017-12-13T08:57:38.920Z,19.73
2017-12-13T09:00:05.197Z,20.95
2017-12-13T09:02:31.421Z,19.58
2017-12-13T09:04:57.643Z,20.45
2017-12-13T09:07:23.865Z,20.65
2017-12-13T09:09:50.726Z,19.67
2017-12-13T09:12:16.963Z,16.37
2017-12-13T09:14:43.547Z,18.90
2017-12-13T09:17:09.855Z,17.95
2017-12-13T09:19:36.142Z,21.15
2017-12-13T09:22:02.402Z,22.65
2017-12-13T09:24:29.012Z,20.55
2017-12-13T09:26:55.337Z,20.35
2017-12-13T09:29:21.618Z,18.83
2017-12-13T09:31:47.811Z,14.65
2017-12-13T09:34:14.373Z,19.50
2017-12-13T09:36:40.643Z,19.60
2017-12-13T09:39:06.993Z,16.10
2017-12-13T09:41:33.244Z,15.23
2017-12-13T09:43:59.891Z,16.15
2017-12-13T09:46:26.134Z,15.32
2017-12-13T09:48:52.944Z,15.13
2017-12-13T09:51:19.198Z,14.70
2017-12-13T09:53:45.442Z,14.95
2017-12-13T09:56:11.660Z,16.05
2017-12-13T09:58:37.900Z,14.57
2017-12-13T10:01:04.150Z,13.25
2017-12-13T10:03:30.395Z,13.10
2017-12-13T10:05:56.604Z,16.62
2017-12-13T10:08:22.855Z,13.90
2017-12-13T10:10:49.112Z,13.50
2017-12-13T10:13:15.358Z,18.15
2017-12-13T10:15:41.698Z,14.65
2017-12-13T10:18:07.924Z,14.68
2017-12-13T10:20:34.255Z,13.95
2017-12-13T10:23:01.506Z,15.50
2017-12-13T10:25:27.768Z,13.52
2017-12-13T10:27:54.071Z,14.00
2017-12-13T10:30:20.323Z,13.68
2017-12-13T10:32:46.541Z,12.70
2017-12-13T10:35:12.743Z,12.43
2017-12-13T10:37:38.998Z,14.90
2017-12-13T10:40:06.158Z,13.13
2017-12-13T10:42:32.421Z,13.10
2017-12-13T10:44:59.057Z,12.13
2017-12-13T10:47:25.794Z,12.55
2017-12-13T10:49:52.305Z,12.50
2017-12-13T10:52:18.655Z,10.60
2017-12-13T10:54:45.033Z,10.30
2017-12-13T10:57:12.159Z,11.25
2017-12-13T10:59:38.379Z,10.80
2017-12-13T11:02:04.645Z,11.57
2017-12-13T11:04:32.377Z,10.60
2017-12-13T11:06:58.625Z,10.57
2017-12-13T11:09:24.864Z,9.48
2017-12-13T11:11:51.096Z,9.77
2017-12-13T11:14:17.350Z,9.52
2017-12-13T11:16:43.605Z,8.32
2017-12-13T11:19:09.846Z,7.40
2017-12-13T11:21:36.074Z,7.80
2017-12-13T11:24:03.353Z,7.43
2017-12-13T11:26:29.596Z,7.20
2017-12-13T11:28:55.856Z,8.93
2017-12-13T11:31:22.135Z,7.43
2017-12-13T11:33:48.391Z,6.80
2017-12-13T11:36:14.616Z,6.70
2017-12-13T11:38:40.870Z,6.20
2017-12-13T11:41:07.107Z,5.45
2017-12-13T11:43:33.453Z,5.87
2017-12-13T11:46:00.194Z,6.15
2017-12-13T11:48:26.426Z,6.57
2017-12-13T11:50:52.697Z,6.45
2017-12-13T11:53:18.941Z,5.97
2017-12-13T11:55:45.168Z,5.30
2017-12-13T11:58:11.381Z,6.32
2017-12-13T12:00:37.636Z,6.40
2017-12-13T12:03:03.864Z,9.07
2017-12-13T12:05:30.139Z,9.52
2017-12-13T12:07:56.484Z,5.97
2017-12-13T12:10:22.713Z,5.57
2017-12-13T12:12:48.966Z,8.13
2017-12-13T12:15:15.224Z,8.10
2017-12-13T12:17:41.811Z,5.28
2017-12-13T12:20:08.115Z,4.05
2017-12-13T12:22:34.371Z,6.07
2017-12-13T12:25:00.691Z,6.60
2017-12-13T12:27:27.334Z,4.75
2017-12-13T12:29:53.566Z,3.40
2017-12-13T12:32:19.795Z,4.00
2017-12-13T12:34:46.005Z,4.45
2017-12-13T12:37:12.266Z,3.80
2017-12-13T12:39:39.309Z,4.60
2017-12-13T12:42:05.531Z,4.20
2017-12-13T12:44:32.025Z,3.92
2017-12-13T12:46:58.215Z,5.80
2017-12-13T12:49:24.440Z,4.45
2017-12-13T12:51:50.675Z,3.78
2017-12-13T12:54:16.974Z,4.80
2017-12-13T12:56:43.195Z,4.15
2017-12-13T12:59:09.429Z,4.22
2017-12-13T13:01:35.687Z,3.75
2017-12-13T13:04:01.965Z,5.10
2017-12-13T13:06:28.196Z,4.18
2017-12-13T13:08:54.479Z,5.62
2017-12-13T13:11:21.084Z,4.97
2017-12-13T13:13:47.325Z,4.10
2017-12-13T13:16:13.594Z,4.00
2017-12-13T13:18:40.238Z,5.80
2017-12-13T13:21:06.928Z,5.30
2017-12-13T13:23:33.131Z,4.50
2017-12-13T13:25:59.361Z,5.68
2017-12-13T13:28:25.629Z,4.62
2017-12-13T13:30:51.852Z,3.67
2017-12-13T13:33:18.092Z,3.85
2017-12-13T13:35:44.370Z,3.75
2017-12-13T13:38:10.689Z,4.85
2017-12-13T13:40:36.929Z,3.75
2017-12-13T13:43:03.151Z,4.82
2017-12-13T13:45:29.998Z,4.10
2017-12-13T13:47:56.228Z,4.15
2017-12-13T13:50:22.473Z,4.00
2017-12-13T13:52:48.780Z,3.83
2017-12-13T13:55:15.067Z,8.23
2017-12-13T13:57:41.677Z,5.30
2017-12-13T14:00:08.034Z,3.45
2017-12-13T14:02:34.274Z,4.12
2017-12-13T14:05:00.541Z,4.25
2017-12-13T14:07:26.781Z,4.47
2017-12-13T14:09:53.123Z,4.45
2017-12-13T14:12:19.370Z,4.00
2017-12-13T14:14:45.568Z,4.97
2017-12-13T14:17:11.785Z,5.12
2017-12-13T14:19:38.052Z,3.90
2017-12-13T14:22:04.351Z,4.45
2017-12-13T14:24:30.638Z,4.75
2017-12-13T14:26:57.228Z,13.98
2017-12-13T14:29:23.553Z,6.25
2017-12-13T14:31:49.879Z,4.45
2017-12-13T14:34:16.174Z,4.62
2017-12-13T14:36:42.469Z,6.62
2017-12-13T14:39:08.722Z,4.03
2017-12-13T14:41:35.416Z,3.45
2017-12-13T14:44:01.673Z,4.50
2017-12-13T14:46:28.301Z,3.95
2017-12-13T14:48:54.549Z,4.07
2017-12-13T14:51:21.800Z,3.67
2017-12-13T14:53:48.474Z,3.85
2017-12-13T14:56:14.716Z,6.53
2017-12-13T14:58:40.969Z,4.50
2017-12-13T15:01:07.180Z,4.32
2017-12-13T15:03:33.443Z,4.55
2017-12-13T15:06:00.066Z,4.28
2017-12-13T15:08:26.941Z,4.35
2017-12-13T15:10:53.202Z,3.70
2017-12-13T15:13:19.467Z,4.32
2017-12-13T15:15:45.759Z,5.05
2017-12-13T15:18:12.007Z,4.40
2017-12-13T15:20:38.265Z,5.47
2017-12-13T15:23:04.506Z,4.32
2017-12-13T15:25:30.762Z,5.82
2017-12-13T15:27:57.009Z,5.20
2017-12-13T15:30:23.229Z,4.22
2017-12-13T15:32:49.472Z,6.37
2017-12-13T15:35:15.710Z,10.57
2017-12-13T15:37:41.951Z,6.87
2017-12-13T15:40:08.148Z,3.42
2017-12-13T15:42:34.381Z,4.18
2017-12-13T15:45:00.628Z,5.12
2017-12-13T15:47:26.854Z,4.00
2017-12-13T15:49:53.186Z,7.25
2017-12-13T15:52:19.438Z,5.40
2017-12-13T15:54:46.160Z,4.40
2017-12-13T15:57:12.430Z,5.53
2017-12-13T15:59:38.644Z,4.55
2017-12-13T16:02:05.273Z,4.70
2017-12-13T16:04:32.756Z,4.10
2017-12-13T16:06:59.043Z,4.50
2017-12-13T16:09:25.354Z,6.22
2017-12-13T16:11:51.577Z,4.15
2017-12-13T16:14:17.784Z,5.10
2017-12-13T16:16:44.023Z,3.70
2017-12-13T16:19:10.253Z,8.93
2017-12-13T16:21:36.495Z,7.32
2017-12-13T16:24:02.764Z,3.72
2017-12-13T16:26:29.392Z,3.62
2017-12-13T16:28:55.587Z,2.85
2017-12-13T16:31:21.886Z,3.05
2017-12-13T16:33:48.141Z,2.87
2017-12-13T16:36:15.385Z,3.00
2017-12-13T16:38:41.639Z,3.08
2017-12-13T16:41:07.872Z,4.20
2017-12-13T16:43:34.122Z,3.95
2017-12-13T16:46:01.258Z,3.85
2017-12-13T16:48:27.518Z,5.25
2017-12-13T16:50:53.745Z,3.20
2017-12-13T16:53:20.327Z,3.47
2017-12-13T16:55:46.607Z,2.70
2017-12-13T16:58:12.862Z,3.15
2017-12-13T17:00:39.234Z,3.50
2017-12-13T17:03:05.473Z,5.90
2017-12-13T17:05:31.722Z,5.55
2017-12-13T17:07:58.338Z,4.85
2017-12-13T17:10:24.608Z,5.82
2017-12-13T17:12:50.850Z,7.70
2017-12-13T17:15:17.122Z,5.20
2017-12-13T17:17:43.370Z,7.18
2017-12-13T17:20:09.671Z,6.80
2017-12-13T17:22:36.047Z,6.00
2017-12-13T17:25:02.483Z,6.70
2017-12-13T17:27:28.723Z,5.32
2017-12-13T17:29:54.975Z,7.28
2017-12-13T17:32:21.535Z,7.20
2017-12-13T17:34:47.763Z,6.68
2017-12-13T17:37:13.993Z,7.93
2017-12-13T17:39:40.756Z,8.20
2017-12-13T17:42:07.417Z,6.00
2017-12-13T17:44:33.684Z,5.25
2017-12-13T17:46:59.951Z,6.43
2017-12-13T17:49:27.130Z,6.18
2017-12-13T17:51:53.418Z,6.12
2017-12-13T17:54:20.113Z,7.00
2017-12-13T17:56:46.374Z,6.35
2017-12-13T17:59:12.649Z,7.43
2017-12-13T18:01:38.954Z,8.27
2017-12-13T18:04:05.228Z,11.90
2017-12-13T18:06:31.516Z,7.53
2017-12-13T18:08:58.426Z,35.63
2017-12-13T18:11:24.670Z,18.12
2017-12-13T18:13:51.004Z,12.65
2017-12-13T18:16:18.248Z,11.12
2017-12-13T18:18:44.484Z,71.82
2017-12-13T18:21:11.139Z,12.65
2017-12-13T18:23:37.734Z,8.77
2017-12-13T18:26:04.047Z,6.70
2017-12-13T18:28:30.418Z,7.75
2017-12-13T18:30:57.074Z,7.90
2017-12-13T18:33:23.748Z,6.12
2017-12-13T18:35:50.088Z,8.52
2017-12-13T18:38:16.408Z,7.43
2017-12-13T18:40:42.731Z,8.85
2017-12-13T18:43:08.961Z,7.80
2017-12-13T18:45:35.274Z,5.60
2017-12-13T18:48:01.594Z,5.85
2017-12-13T18:50:27.893Z,9.50
2017-12-13T18:52:54.227Z,6.62
2017-12-13T18:55:20.560Z,7.12
2017-12-13T18:57:46.858Z,5.12
2017-12-13T19:00:16.283Z,5.05
2017-12-13T19:02:42.532Z,7.68
2017-12-13T19:05:09.182Z,7.07
2017-12-13T19:07:35.936Z,7.10
2017-12-13T19:10:02.200Z,6.03
2017-12-13T19:12:28.513Z,6.62
2017-12-13T19:14:54.804Z,6.20
2017-12-13T19:17:21.161Z,6.00
2017-12-13T19:19:47.520Z,6.10
2017-12-13T19:22:14.539Z,6.85
2017-12-13T19:24:40.867Z,6.57
2017-12-13T19:27:07.200Z,7.43
2017-12-13T19:29:33.480Z,5.87
2017-12-13T19:31:59.762Z,7.55
2017-12-13T19:34:26.073Z,8.57
2017-12-13T19:36:52.455Z,8.45
2017-12-13T19:39:18.726Z,7.37
2017-12-13T19:41:45.390Z,7.18
2017-12-13T19:44:11.675Z,8.77
2017-12-13T19:46:38.319Z,7.45
2017-12-13T19:49:04.953Z,7.47
2017-12-13T19:51:31.242Z,7.95
2017-12-13T19:53:57.581Z,8.05
2017-12-13T19:56:23.920Z,7.95
2017-12-13T19:58:50.247Z,8.48
2017-12-13T20:01:16.583Z,7.45
2017-12-13T20:03:42.870Z,9.60
2017-12-13T20:06:09.198Z,8.02
2017-12-13T20:08:35.589Z,7.00
2017-12-13T20:11:02.025Z,8.30
2017-12-13T20:13:28.387Z,7.47
2017-12-13T20:15:54.685Z,7.90
2017-12-13T20:18:21.063Z,7.45
2017-12-13T20:20:47.419Z,8.02
2017-12-13T20:23:14.480Z,7.85
2017-12-13T20:25:40.766Z,7.65
2017-12-13T20:28:07.086Z,7.72
2017-12-13T20:30:33.420Z,9.45
2017-12-13T20:32:59.776Z,7.37
2017-12-13T20:35:26.048Z,8.38
2017-12-13T20:37:52.776Z,8.85
2017-12-13T20:40:19.073Z,10.00
2017-12-13T20:42:45.314Z,7.70
2017-12-13T20:45:11.726Z,8.05
2017-12-13T20:47:38.043Z,7.62
2017-12-13T20:50:04.440Z,7.28
2017-12-13T20:52:31.122Z,9.35
2017-12-13T20:54:57.471Z,7.37
2017-12-13T20:57:23.825Z,8.40
2017-12-13T20:59:50.075Z,6.28
2017-12-13T21:02:17.020Z,6.75
2017-12-13T21:04:43.763Z,8.02
2017-12-13T21:07:10.482Z,7.65
2017-12-13T21:09:36.816Z,6.97
2017-12-13T21:12:03.112Z,6.45
2017-12-13T21:14:29.392Z,6.50
2017-12-13T21:16:55.645Z,7.18
2017-12-13T21:19:21.961Z,7.45
2017-12-13T21:21:48.292Z,7.60
2017-12-13T21:24:15.204Z,7.70
2017-12-13T21:26:42.262Z,6.97
2017-12-13T21:29:08.967Z,7.95
2017-12-13T21:31:35.913Z,10.15
2017-12-13T21:34:02.194Z,7.80
2017-12-13T21:36:28.484Z,8.07
2017-12-13T21:38:54.812Z,8.98
2017-12-13T21:41:21.054Z,7.43
2017-12-13T21:43:47.657Z,8.32
2017-12-13T21:46:13.934Z,8.55
2017-12-13T21:48:40.518Z,9.65
2017-12-13T21:51:06.806Z,8.05
2017-12-13T21:53:33.445Z,9.15
2017-12-13T21:56:00.058Z,7.20
2017-12-13T21:58:26.693Z,6.82
2017-12-13T22:00:52.961Z,8.23
2017-12-13T22:03:19.268Z,7.53
2017-12-13T22:05:45.530Z,7.60
2017-12-13T22:08:11.772Z,8.07
2017-12-13T22:10:38.003Z,9.63
2017-12-13T22:13:04.239Z,10.80
2017-12-13T22:15:30.495Z,82.97
2017-12-13T22:17:56.717Z,79.20
2017-12-13T22:20:23.022Z,9.77
2017-12-13T22:22:49.250Z,10.77
2017-12-13T22:25:15.447Z,14.70
2017-12-13T22:27:41.684Z,9.98
2017-12-13T22:30:07.902Z,8.00
2017-12-13T22:32:34.199Z,8.82
2017-12-13T22:35:00.444Z,8.02
2017-12-13T22:37:27.338Z,9.95
2017-12-13T22:39:53.573Z,8.23
2017-12-13T22:42:19.812Z,69.07
2017-12-13T22:44:46.069Z,52.00
2017-12-13T22:47:12.759Z,75.10
2017-12-13T22:49:39.009Z,82.05
2017-12-13T22:52:05.216Z,92.25
2017-12-13T22:54:31.435Z,78.60
2017-12-13T22:56:57.705Z,72.35
2017-12-13T22:59:23.951Z,60.28
2017-12-13T23:01:50.358Z,55.65
2017-12-13T23:04:16.625Z,54.63
2017-12-13T23:06:42.889Z,50.85
2017-12-13T23:09:09.121Z,47.30
2017-12-13T23:11:35.346Z,48.53
2017-12-13T23:14:01.595Z,35.95
2017-12-13T23:16:27.897Z,41.78
2017-12-13T23:18:54.148Z,41.10
2017-12-13T23:21:20.416Z,31.48
2017-12-13T23:23:46.660Z,20.50
2017-12-13T23:26:13.753Z,17.98
2017-12-13T23:28:40.013Z,17.02
2017-12-13T23:31:07.620Z,16.37
2017-12-13T23:33:33.862Z,20.12
2017-12-13T23:36:00.113Z,16.60
2017-12-13T23:38:26.337Z,17.83
2017-12-13T23:40:52.585Z,17.95
2017-12-13T23:43:19.157Z,35.58
2017-12-13T23:45:45.425Z,20.95
2017-12-13T23:48:11.718Z,24.58
2017-12-13T23:50:37.994Z,19.23
2017-12-13T23:53:04.193Z,19.48
2017-12-13T23:55:30.488Z,16.73
2017-12-13T23:57:56.738Z,13.27
